Time;durP1;ratioP1;P1;durP2;ratioP2;P2;SDS_P1;SDS_P2;PMS_P1;PMS_P2;Temp;Humidity;BMP_temperature;BMP_pressure;BME280_temperature;BME280_humidity;BME280_pressure;Samples;Min_cycle;Max_cycle;Signal;HPM_P1;HPM_P2
2022/04/21 00:00:27;;;;;;;4.53;4.13;;;8.90;91.40;;;;;;5078297;28;20211;-59
2022/04/21 00:02:54;;;;;;;7.50;4.13;;;8.90;91.70;;;;;;5078229;28;20228;-59
2022/04/21 00:05:23;;;;;;;6.70;5.00;;;8.80;91.80;;;;;;5078133;28;20204;-59
2022/04/21 00:07:49;;;;;;;8.60;4.17;;;8.90;91.90;;;;;;5078034;28;20207;-59
2022/04/21 00:10:17;;;;;;;7.93;4.60;;;8.90;91.90;;;;;;5078138;28;20212;-59
2022/04/21 00:12:44;;;;;;;6.27;4.70;;;8.90;92.40;;;;;;5078384;28;20205;-59
2022/04/21 00:15:12;;;;;;;4.70;4.23;;;8.70;93.00;;;;;;5078314;28;20209;-59
2022/04/21 00:17:39;;;;;;;6.03;4.50;;;8.60;93.50;;;;;;5077935;28;20311;-58
2022/04/21 00:20:07;;;;;;;6.57;5.17;;;8.60;93.60;;;;;;5078134;28;20220;-59
2022/04/21 00:25:19;;;;;;;4.90;4.40;;;8.60;94.00;;;;;;5078178;28;20935;-59
2022/04/21 00:27:47;;;;;;;5.67;4.40;;;8.60;94.20;;;;;;5077652;28;20208;-60
2022/04/21 00:30:16;;;;;;;5.53;4.80;;;8.60;94.30;;;;;;5077980;28;20263;-59
2022/04/21 00:32:43;;;;;;;5.10;4.60;;;8.60;94.50;;;;;;5078140;28;20205;-60
2022/04/21 00:35:12;;;;;;;6.23;4.40;;;8.60;94.70;;;;;;5078247;28;20251;-60
2022/04/21 00:37:46;;;;;;;7.60;4.60;;;8.60;94.90;;;;;;5078012;28;20231;-60
2022/04/21 00:40:13;;;;;;;6.77;5.33;;;8.60;95.20;;;;;;5077977;28;20254;-59
2022/04/21 00:42:40;;;;;;;8.20;5.00;;;8.50;95.40;;;;;;5077832;28;20221;-59
2022/04/21 00:45:07;;;;;;;6.47;5.43;;;8.50;95.60;;;;;;5078027;28;20212;-59
2022/04/21 00:47:35;;;;;;;6.00;5.40;;;8.50;95.90;;;;;;5077927;28;20209;-59
2022/04/21 00:50:02;;;;;;;6.27;5.43;;;8.50;95.90;;;;;;5077786;28;20232;-59
2022/04/21 00:52:29;;;;;;;5.67;5.00;;;8.50;96.00;;;;;;5074507;28;20204;-59
2022/04/21 00:54:57;;;;;;;7.83;5.40;;;8.50;96.10;;;;;;5074780;28;20634;-59
2022/04/21 00:57:24;;;;;;;6.50;5.77;;;8.60;96.20;;;;;;5074560;28;20209;-59
2022/04/21 00:59:50;;;;;;;6.17;5.17;;;8.60;96.10;;;;;;5074071;28;20721;-59
2022/04/21 01:05:02;;;;;;;6.50;5.30;;;8.60;96.20;;;;;;5074586;28;20199;-59
2022/04/21 01:07:28;;;;;;;6.30;4.97;;;8.60;96.20;;;;;;5074412;28;20266;-59
2022/04/21 01:09:56;;;;;;;6.57;4.83;;;8.60;96.20;;;;;;5074590;28;20643;-59
2022/04/21 01:12:24;;;;;;;7.57;4.70;;;8.60;96.20;;;;;;5074609;28;20258;-59
2022/04/21 01:14:51;;;;;;;9.13;5.17;;;8.60;96.10;;;;;;5074391;28;20287;-59
2022/04/21 01:17:17;;;;;;;5.87;4.70;;;8.60;96.20;;;;;;5074239;28;20318;-60
2022/04/21 01:19:44;;;;;;;6.30;5.10;;;8.50;96.50;;;;;;5073757;28;20233;-58
2022/04/21 01:22:12;;;;;;;5.03;4.57;;;8.50;96.40;;;;;;5073965;28;20209;-59
2022/04/21 01:24:39;;;;;;;5.20;4.70;;;8.40;96.30;;;;;;5073988;28;20619;-59
2022/04/21 01:27:05;;;;;;;7.40;4.87;;;8.30;96.70;;;;;;5074275;28;20266;-59
2022/04/21 01:29:32;;;;;;;6.97;5.57;;;8.30;97.20;;;;;;5073889;28;20247;-59
2022/04/21 01:31:59;;;;;;;9.10;6.27;;;8.30;97.10;;;;;;5074000;28;20200;-59
2022/04/21 01:34:26;;;;;;;5.83;5.23;;;8.20;97.10;;;;;;5074397;28;20212;-60
2022/04/21 01:42:22;;;;;;;6.17;5.50;;;8.00;98.00;;;;;;5073828;28;20580;-58
2022/04/21 01:44:49;;;;;;;12.03;9.37;;;8.00;98.20;;;;;;5073492;28;20681;-58
2022/04/21 01:47:15;;;;;;;9.03;6.90;;;8.00;98.40;;;;;;5073530;28;20726;-58
2022/04/21 01:49:42;;;;;;;7.80;6.00;;;7.90;98.30;;;;;;5087262;22;20306;-61
2022/04/21 01:52:09;;;;;;;9.10;8.13;;;8.00;98.30;;;;;;5073677;28;20220;-59
2022/04/21 01:54:35;;;;;;;9.43;6.10;;;8.00;98.40;;;;;;5074350;28;20212;-58
2022/04/21 01:57:04;;;;;;;7.10;6.40;;;8.00;98.30;;;;;;5073982;28;20201;-59
2022/04/21 01:59:30;;;;;;;7.30;5.70;;;8.00;98.40;;;;;;5073677;28;20240;-59
2022/04/21 02:01:57;;;;;;;6.13;5.53;;;8.00;98.40;;;;;;5073415;28;20570;-58
2022/04/21 02:04:24;;;;;;;7.97;5.87;;;8.00;98.40;;;;;;5073542;28;20205;-59
2022/04/21 02:06:51;;;;;;;5.97;5.40;;;8.00;98.50;;;;;;5073461;28;20255;-59
2022/04/21 02:09:17;;;;;;;7.00;6.00;;;7.90;98.50;;;;;;5073072;28;20221;-59
2022/04/21 02:11:44;;;;;;;11.77;9.37;;;7.90;98.60;;;;;;5073262;28;20209;-59
2022/04/21 02:14:13;;;;;;;11.53;8.27;;;7.80;98.70;;;;;;5073219;28;20213;-59
2022/04/21 02:16:40;;;;;;;6.73;5.23;;;7.80;98.80;;;;;;5073391;28;20254;-59
2022/04/21 02:19:06;;;;;;;6.93;5.40;;;7.80;99.00;;;;;;5072734;28;20700;-59
2022/04/21 02:21:33;;;;;;;7.70;5.57;;;7.70;99.10;;;;;;5073119;28;20672;-59
2022/04/21 02:24:00;;;;;;;6.27;5.63;;;7.70;99.30;;;;;;5073201;28;20204;-58
2022/04/21 02:26:26;;;;;;;8.03;6.30;;;7.70;99.40;;;;;;5072860;28;20209;-59
2022/04/21 02:28:53;;;;;;;7.50;6.07;;;7.60;99.70;;;;;;5072441;28;20221;-61
2022/04/21 02:31:21;;;;;;;11.73;5.93;;;7.60;99.70;;;;;;5073229;28;20215;-59
2022/04/21 02:33:48;;;;;;;8.77;6.40;;;7.50;99.90;;;;;;5073005;28;20209;-59
2022/04/21 02:36:14;;;;;;;7.93;5.93;;;7.50;99.90;;;;;;5072818;28;20707;-58
2022/04/21 02:38:41;;;;;;;7.53;6.57;;;7.40;99.90;;;;;;5072314;28;20723;-59
2022/04/21 02:41:07;;;;;;;6.37;5.77;;;7.40;99.90;;;;;;5072702;28;20205;-59
2022/04/21 02:43:34;;;;;;;6.97;6.27;;;7.30;99.90;;;;;;5072776;28;20204;-58
2022/04/21 02:46:02;;;;;;;9.00;6.30;;;7.30;99.90;;;;;;5073079;28;20209;-59
2022/04/21 02:48:31;;;;;;;6.90;5.93;;;7.30;99.90;;;;;;5072625;28;20220;-58
2022/04/21 02:50:57;;;;;;;6.93;6.20;;;7.20;99.90;;;;;;5072920;28;20254;-58
2022/04/21 02:58:49;;;;;;;7.83;6.57;;;7.10;99.90;;;;;;5071986;28;20608;-59
2022/04/21 03:01:16;;;;;;;8.53;6.80;;;6.90;99.90;;;;;;5072481;28;20201;-59
2022/04/21 03:03:44;;;;;;;6.60;5.90;;;6.80;99.90;;;;;;5072449;28;20231;-58
2022/04/21 03:06:12;;;;;;;7.17;6.10;;;6.70;99.90;;;;;;5072127;28;20715;-59
2022/04/21 03:08:39;;;;;;;8.07;6.87;;;6.50;99.90;;;;;;5071768;28;20783;-58
2022/04/21 03:11:06;;;;;;;10.13;8.23;;;6.30;99.90;;;;;;5072236;28;20208;-59
2022/04/21 03:13:32;;;;;;;7.23;6.37;;;6.10;99.90;;;;;;5072393;28;20205;-59
2022/04/21 03:15:59;;;;;;;6.93;5.93;;;6.00;99.90;;;;;;5071577;28;20201;-59
2022/04/21 03:18:26;;;;;;;6.50;5.90;;;6.00;99.90;;;;;;5071637;28;20232;-58
2022/04/21 03:26:21;;;;;;;7.83;6.67;;;5.90;99.90;;;;;;5061119;28;20326;-58
2022/04/21 03:28:48;;;;;;;8.03;6.47;;;5.80;99.90;;;;;;5071646;28;20224;-59
2022/04/21 03:31:14;;;;;;;10.70;7.00;;;5.70;99.90;;;;;;5071777;28;20575;-60
2022/04/21 03:33:42;;;;;;;8.67;7.40;;;5.70;99.90;;;;;;5072149;28;20216;-60
2022/04/21 03:36:10;;;;;;;8.20;6.83;;;5.60;99.90;;;;;;5071944;28;20204;-61
2022/04/21 03:38:38;;;;;;;7.93;6.60;;;5.60;99.90;;;;;;5071554;28;20324;-58
2022/04/21 03:41:05;;;;;;;7.03;6.33;;;5.60;99.90;;;;;;5071807;28;20272;-58
2022/04/21 03:43:32;;;;;;;7.77;6.67;;;5.60;99.90;;;;;;5071713;28;20212;-58
2022/04/21 03:45:59;;;;;;;7.33;6.57;;;5.60;99.90;;;;;;5071928;28;20668;-58
2022/04/21 03:48:25;;;;;;;8.50;7.10;;;5.70;99.90;;;;;;5071538;28;20229;-59
2022/04/21 03:50:52;;;;;;;8.17;7.37;;;5.80;99.90;;;;;;5071924;28;20216;-58
2022/04/21 03:53:20;;;;;;;13.40;7.63;;;5.80;99.90;;;;;;5071950;28;20208;-58
2022/04/21 03:55:47;;;;;;;15.23;10.50;;;5.90;99.90;;;;;;5071706;28;20215;-58
2022/04/21 03:58:13;;;;;;;9.73;8.13;;;5.90;99.90;;;;;;5071545;28;20231;-59
2022/04/21 04:00:40;;;;;;;11.60;9.07;;;6.00;99.90;;;;;;5071361;28;20707;-59
2022/04/21 04:03:07;;;;;;;13.07;8.27;;;6.00;99.90;;;;;;5071743;28;20213;-59
2022/04/21 04:05:34;;;;;;;8.87;7.97;;;6.10;99.90;;;;;;5071686;28;20209;-59
2022/04/21 04:10:52;;;;;;;8.33;7.50;;;6.10;99.90;;;;;;5071546;28;20323;-59
2022/04/21 04:13:19;;;;;;;9.47;7.63;;;6.10;99.90;;;;;;5071693;28;20224;-59
2022/04/21 04:15:48;;;;;;;8.67;7.60;;;6.00;99.90;;;;;;5071779;28;20204;-59
2022/04/21 04:18:16;;;;;;;9.33;7.87;;;6.00;99.90;;;;;;5071165;28;20205;-58
2022/04/21 04:20:42;;;;;;;8.23;7.43;;;6.00;99.90;;;;;;5071483;28;20752;-61
2022/04/21 04:23:09;;;;;;;9.10;7.87;;;6.00;99.90;;;;;;5071365;28;20204;-59
2022/04/21 04:25:36;;;;;;;8.93;7.57;;;6.00;99.90;;;;;;5071177;28;20208;-58
2022/04/21 04:28:04;;;;;;;9.23;7.83;;;6.00;99.90;;;;;;5073882;28;20586;-57
2022/04/21 04:30:31;;;;;;;11.93;7.70;;;6.00;99.90;;;;;;5075124;28;20205;-58
2022/04/21 04:32:58;;;;;;;8.40;7.60;;;6.00;99.90;;;;;;5075365;28;20237;-58
2022/04/21 04:35:25;;;;;;;11.87;9.07;;;6.00;99.90;;;;;;5075317;28;20296;-58
2022/04/21 04:37:53;;;;;;;8.57;7.10;;;6.10;99.90;;;;;;5075773;28;20208;-57
2022/04/21 04:40:19;;;;;;;9.33;7.77;;;6.10;99.90;;;;;;5074467;28;20232;-58
2022/04/21 04:42:46;;;;;;;9.37;7.50;;;6.10;99.90;;;;;;5075045;28;20262;-58
2022/04/21 04:47:59;;;;;;;8.87;8.00;;;6.20;99.90;;;;;;5074838;28;20630;-58
2022/04/21 04:50:25;;;;;;;9.47;8.47;;;6.20;99.90;;;;;;5074126;28;20659;-58
2022/04/21 04:52:57;;;;;;;9.80;8.17;;;6.30;99.90;;;;;;5074977;28;20205;-59
2022/04/21 04:55:24;;;;;;;8.90;8.00;;;6.30;99.90;;;;;;5074920;28;20772;-58
2022/04/21 04:57:51;;;;;;;10.67;8.43;;;6.40;99.90;;;;;;5074568;28;20205;-58
2022/04/21 05:00:20;;;;;;;11.07;8.73;;;6.40;99.90;;;;;;5074083;28;20229;-58
2022/04/21 05:02:46;;;;;;;10.00;8.60;;;6.40;99.90;;;;;;5074665;28;20205;-58
2022/04/21 05:05:13;;;;;;;10.90;8.83;;;6.50;99.90;;;;;;5074462;28;20204;-58
2022/04/21 05:07:40;;;;;;;12.63;8.73;;;6.60;99.90;;;;;;5074840;28;20201;-57
2022/04/21 05:10:08;;;;;;;11.60;9.27;;;6.60;99.90;;;;;;5074291;28;20271;-58
2022/04/21 05:12:34;;;;;;;13.60;8.90;;;6.70;99.90;;;;;;5074618;28;20286;-59
2022/04/21 05:15:01;;;;;;;9.30;8.30;;;6.90;99.90;;;;;;5074229;28;20251;-59
2022/04/21 05:17:30;;;;;;;13.47;9.07;;;7.00;99.90;;;;;;5074099;28;20714;-58
2022/04/21 05:19:57;;;;;;;11.57;9.30;;;7.20;99.90;;;;;;5073911;28;20678;-59
2022/04/21 05:22:28;;;;;;;13.13;11.50;;;7.30;99.90;;;;;;5074163;28;20209;-58
2022/04/21 05:24:57;;;;;;;12.87;8.90;;;7.50;99.90;;;;;;5074090;28;20213;-58
2022/04/21 05:27:24;;;;;;;11.50;9.47;;;7.60;99.90;;;;;;5073991;28;20216;-59
2022/04/21 05:32:40;;;;;;;10.37;8.57;;;8.00;99.90;;;;;;5073978;28;20690;-58
2022/04/21 05:35:08;;;;;;;12.70;8.53;;;8.10;99.90;;;;;;5073740;28;20211;-58
2022/04/21 05:37:36;;;;;;;14.17;8.93;;;8.30;99.90;;;;;;5073246;28;20217;-58
2022/04/21 05:40:04;;;;;;;10.73;9.43;;;8.60;99.90;;;;;;5073442;28;20316;-59
2022/04/21 05:42:35;;;;;;;10.97;8.77;;;9.30;99.90;;;;;;5073624;28;20340;-59
2022/04/21 05:45:03;;;;;;;12.40;7.90;;;11.00;99.90;;;;;;5073972;28;20208;-59
2022/04/21 05:47:30;;;;;;;9.23;6.40;;;12.90;99.60;;;;;;5073813;28;20688;-59
2022/04/21 05:50:00;;;;;;;7.77;6.03;;;14.30;92.70;;;;;;5073537;28;20628;-59
2022/04/21 05:52:30;;;;;;;9.33;6.63;;;14.30;91.50;;;;;;5073473;28;20722;-59
2022/04/21 05:54:57;;;;;;;8.17;6.50;;;14.10;92.00;;;;;;5073578;28;20236;-58
2022/04/21 05:57:24;;;;;;;19.87;14.70;;;14.70;90.80;;;;;;5073360;28;20315;-58
2022/04/21 05:59:50;;;;;;;7.40;6.17;;;16.00;88.50;;;;;;5072930;28;20225;-58
2022/04/21 06:02:17;;;;;;;7.35;6.57;;;17.60;85.30;;;;;;5073374;28;20201;-57
2022/04/21 06:04:44;;;;;;;7.50;6.43;;;19.00;77.20;;;;;;5073407;28;20201;-57
2022/04/21 06:07:12;;;;;;;8.38;6.10;;;20.10;72.40;;;;;;5073332;28;20208;-59
2022/04/21 06:09:39;;;;;;;9.85;7.13;;;20.70;67.70;;;;;;5073149;28;20704;-59
2022/04/21 06:12:08;;;;;;;7.82;6.20;;;20.80;68.60;;;;;;5073480;28;20240;-59
2022/04/21 06:14:38;;;;;;;7.97;6.07;;;21.60;66.70;;;;;;5073215;28;20416;-59
2022/04/21 06:17:05;;;;;;;8.70;6.40;;;22.40;63.80;;;;;;5072980;28;20680;-59
2022/04/21 06:19:32;;;;;;;7.75;6.00;;;23.20;60.80;;;;;;5072636;28;20224;-58
2022/04/21 06:21:59;;;;;;;7.07;6.38;;;23.80;59.50;;;;;;5073110;28;20209;-58
2022/04/21 06:24:27;;;;;;;6.75;6.07;;;24.10;58.10;;;;;;5072743;28;20254;-59
2022/04/21 06:26:53;;;;;;;6.53;5.93;;;24.70;56.80;;;;;;5072952;28;20209;-58
2022/04/21 06:29:20;;;;;;;7.15;6.45;;;25.30;55.20;;;;;;5073071;28;20581;-57
2022/04/21 06:31:46;;;;;;;8.32;6.57;;;25.80;54.20;;;;;;5073180;28;20734;-58
2022/04/21 06:34:13;;;;;;;7.97;5.82;;;26.30;53.00;;;;;;5073120;28;20616;-58
2022/04/21 06:36:40;;;;;;;6.82;6.18;;;26.80;51.90;;;;;;5072745;28;20625;-58
2022/04/21 06:39:06;;;;;;;8.68;7.10;;;26.90;51.00;;;;;;5072848;28;20233;-59
2022/04/21 06:41:34;;;;;;;8.05;5.80;;;27.40;50.90;;;;;;5073156;28;20209;-58
2022/04/21 06:49:30;;;;;;;7.05;6.35;;;27.30;48.90;;;;;;5071472;28;20228;-59
2022/04/21 06:51:56;;;;;;;6.22;5.63;;;27.50;49.10;;;;;;5072792;28;20201;-58
2022/04/21 06:54:23;;;;;;;7.78;6.78;;;27.90;48.50;;;;;;5072963;28;20227;-58
2022/04/21 06:56:51;;;;;;;7.25;6.55;;;28.30;47.70;;;;;;5072957;28;20211;-58
2022/04/21 06:59:18;;;;;;;7.13;6.43;;;28.50;47.40;;;;;;5072416;28;20236;-58
2022/04/21 07:01:46;;;;;;;6.90;6.20;;;28.90;46.20;;;;;;5072664;28;20200;-58
2022/04/21 07:04:13;;;;;;;7.78;6.05;;;28.90;45.80;;;;;;5072680;28;20216;-58
2022/04/21 07:06:40;;;;;;;6.88;5.70;;;28.90;46.00;;;;;;5072367;28;20212;-57
2022/04/21 07:09:07;;;;;;;7.28;6.55;;;29.20;45.40;;;;;;5071845;28;20645;-57
2022/04/21 07:11:34;;;;;;;7.57;6.45;;;29.40;45.00;;;;;;5072216;28;20279;-60
2022/04/21 07:14:02;;;;;;;7.50;6.78;;;29.90;44.00;;;;;;5072022;28;20594;-57
2022/04/21 07:16:29;;;;;;;7.22;6.45;;;30.20;43.50;;;;;;5071906;28;20258;-60
2022/04/21 07:18:55;;;;;;;7.57;6.30;;;30.50;43.00;;;;;;5071811;28;20228;-63
2022/04/21 07:21:22;;;;;;;7.68;6.70;;;30.80;42.00;;;;;;5072078;28;20225;-59
2022/04/21 07:23:49;;;;;;;7.28;6.57;;;30.60;42.10;;;;;;5072087;28;20212;-58
2022/04/21 07:26:17;;;;;;;6.68;6.07;;;30.00;43.00;;;;;;5072095;28;20287;-59
2022/04/21 07:28:44;;;;;;;9.95;6.72;;;29.70;43.10;;;;;;5071419;28;20263;-58
2022/04/21 07:31:13;;;;;;;7.43;6.30;;;29.50;43.30;;;;;;5072008;28;20574;-58
2022/04/21 07:33:39;;;;;;;6.55;5.95;;;29.40;43.80;;;;;;5071851;28;20664;-59
2022/04/21 07:36:06;;;;;;;7.32;6.43;;;29.50;43.50;;;;;;5071523;28;20676;-58
2022/04/21 07:38:34;;;;;;;6.97;6.00;;;29.50;43.10;;;;;;5071658;28;20232;-59
2022/04/21 07:41:01;;;;;;;6.60;5.93;;;29.50;42.80;;;;;;5071842;28;20232;-59
2022/04/21 07:43:28;;;;;;;6.40;5.80;;;29.00;43.80;;;;;;5071647;28;20208;-59
2022/04/21 07:45:55;;;;;;;6.53;5.93;;;28.80;44.40;;;;;;5071730;28;20660;-63
2022/04/21 07:48:23;;;;;;;7.07;6.38;;;29.10;43.80;;;;;;5071403;28;20212;-58
2022/04/21 07:50:50;;;;;;;6.65;6.05;;;29.60;42.80;;;;;;5071889;28;20569;-58
2022/04/21 07:53:18;;;;;;;6.65;6.05;;;29.30;43.20;;;;;;5071840;28;20350;-59
2022/04/21 07:55:46;;;;;;;6.85;5.85;;;28.90;43.80;;;;;;5071815;28;20223;-59
2022/04/21 07:58:13;;;;;;;6.25;5.75;;;28.50;43.50;;;;;;5071891;28;20213;-58
2022/04/21 08:00:41;;;;;;;8.20;6.50;;;28.20;44.40;;;;;;5071490;28;20274;-58
2022/04/21 08:03:09;;;;;;;7.47;5.68;;;28.30;44.30;;;;;;5075651;28;20208;-60
2022/04/21 08:05:37;;;;;;;6.15;5.65;;;26.90;46.50;;;;;;5075824;28;20212;-57
2022/04/21 08:08:04;;;;;;;6.78;5.60;;;26.20;47.40;;;;;;5075484;28;20254;-57
2022/04/21 08:10:31;;;;;;;5.97;5.38;;;26.20;46.60;;;;;;5075239;28;20201;-57
2022/04/21 08:12:59;;;;;;;5.55;5.03;;;26.50;45.90;;;;;;5075291;28;20287;-58
2022/04/21 08:15:27;;;;;;;6.05;5.40;;;26.90;45.10;;;;;;5075716;28;20240;-58
2022/04/21 08:17:54;;;;;;;5.53;5.00;;;27.00;44.90;;;;;;5075265;28;20571;-58
2022/04/21 08:20:22;;;;;;;7.82;5.20;;;27.00;45.00;;;;;;5074944;28;20256;-58
2022/04/21 08:22:50;;;;;;;6.03;4.88;;;26.30;45.90;;;;;;5075162;28;20620;-58
2022/04/21 08:33:32;;;;;;;6.40;5.20;;;20.50;53.70;;;;;;5075091;28;20208;-57
2022/04/21 08:35:59;;;;;;;6.88;5.25;;;19.30;55.90;;;;;;5074932;28;20284;-57
2022/04/21 08:38:29;;;;;;;6.22;5.13;;;18.40;57.60;;;;;;5075096;28;20224;-57
2022/04/21 08:40:57;;;;;;;6.50;5.78;;;17.90;59.10;;;;;;5074557;28;20224;-57
2022/04/21 08:43:25;;;;;;;6.40;5.60;;;17.30;60.70;;;;;;5074852;28;20254;-57
2022/04/21 08:45:53;;;;;;;17.08;12.70;;;17.10;61.50;;;;;;5074728;28;20205;-57
2022/04/21 08:48:21;;;;;;;8.38;5.88;;;17.00;62.30;;;;;;5074268;28;20205;-56
2022/04/21 08:50:48;;;;;;;6.55;5.82;;;16.90;63.30;;;;;;5074318;28;20197;-57
2022/04/21 08:53:16;;;;;;;6.90;5.80;;;17.00;62.60;;;;;;5075149;28;20201;-57
2022/04/21 08:55:44;;;;;;;5.75;5.20;;;16.90;63.00;;;;;;5074574;28;20212;-57
2022/04/21 08:58:12;;;;;;;6.10;5.00;;;16.80;63.20;;;;;;5074373;28;20668;-58
2022/04/21 09:00:38;;;;;;;6.57;4.80;;;16.70;64.10;;;;;;5074009;28;20252;-58
2022/04/21 09:03:07;;;;;;;5.60;5.10;;;16.30;65.10;;;;;;5074564;28;20440;-58
2022/04/21 09:05:33;;;;;;;5.87;4.57;;;16.20;64.90;;;;;;5074578;28;20201;-58
2022/04/21 09:08:01;;;;;;;4.93;4.43;;;16.20;65.30;;;;;;5074294;28;20254;-58
2022/04/21 09:10:28;;;;;;;7.00;4.60;;;16.30;65.60;;;;;;5074032;28;20312;-57
2022/04/21 09:12:57;;;;;;;5.40;4.90;;;16.30;65.90;;;;;;5073349;28;20288;-57
2022/04/21 09:15:27;;;;;;;4.73;4.33;;;16.30;65.60;;;;;;5074058;28;20747;-58
2022/04/21 09:17:57;;;;;;;5.33;4.43;;;16.40;65.60;;;;;;5065176;28;20584;-55
2022/04/21 09:20:26;;;;;;;6.23;4.60;;;16.60;65.90;;;;;;5053889;28;20384;-59
2022/04/21 09:22:54;;;;;;;5.53;4.70;;;16.70;65.50;;;;;;5053841;28;20217;-61
2022/04/21 09:25:23;;;;;;;6.37;4.20;;;16.80;65.20;;;;;;5054384;28;20213;-58
2022/04/21 09:27:49;;;;;;;4.97;4.47;;;16.80;65.30;;;;;;5053517;28;20336;-59
2022/04/21 09:30:18;;;;;;;5.20;4.23;;;16.90;65.20;;;;;;5053890;28;20229;-59
2022/04/21 09:32:53;;;;;;;5.50;4.00;;;17.00;65.10;;;;;;5053710;28;20206;-59
2022/04/21 09:35:21;;;;;;;4.60;4.20;;;17.10;64.10;;;;;;5053877;28;20255;-59
2022/04/21 09:37:49;;;;;;;5.70;4.70;;;17.30;64.20;;;;;;5053860;28;20593;-62
2022/04/21 09:40:17;;;;;;;5.20;3.90;;;17.20;63.60;;;;;;5053537;28;20234;-60
2022/04/21 09:42:44;;;;;;;6.60;3.80;;;17.20;64.80;;;;;;5054002;28;20229;-59
2022/04/21 09:48:02;;;;;;;4.50;3.80;;;17.30;64.90;;;;;;5053756;28;20213;-62
2022/04/21 09:50:33;;;;;;;4.25;3.80;;;17.20;64.40;;;;;;5053513;28;20673;-57
2022/04/21 09:53:04;;;;;;;6.10;3.80;;;17.30;64.20;;;;;;5035798;28;20205;-59
2022/04/21 09:55:31;;;;;;;3.40;3.10;;;17.20;62.20;;;;;;5053517;28;20210;-59
2022/04/21 09:58:05;;;;;;;3.60;3.30;;;17.10;62.60;;;;;;5053037;28;20221;-60
2022/04/21 10:00:33;;;;;;;4.00;3.40;;;17.00;63.80;;;;;;5053166;28;20220;-57
2022/04/21 10:03:03;;;;;;;2.78;2.47;;;17.10;64.10;;;;;;5053615;28;20582;-61
2022/04/21 10:05:31;;;;;;;3.45;3.15;;;17.30;64.70;;;;;;5053542;28;20202;-60
2022/04/21 10:08:00;;;;;;;4.85;3.25;;;17.50;64.50;;;;;;5053416;28;20214;-59
2022/04/21 10:10:28;;;;;;;5.87;3.70;;;17.50;65.20;;;;;;5052668;28;20225;-60
2022/04/21 10:12:56;;;;;;;3.00;2.70;;;17.40;65.00;;;;;;5053083;28;20231;-60
2022/04/21 10:15:24;;;;;;;3.20;2.90;;;17.50;65.50;;;;;;5052750;28;20673;-61
2022/04/21 10:17:51;;;;;;;3.53;3.22;;;17.40;66.20;;;;;;5052723;28;20209;-59
2022/04/21 10:20:22;;;;;;;3.45;2.58;;;17.20;66.30;;;;;;5052568;28;20721;-60
2022/04/21 10:22:49;;;;;;;3.40;2.80;;;17.20;66.20;;;;;;5052843;28;20642;-59
2022/04/21 10:25:18;;;;;;;3.40;2.78;;;17.20;66.30;;;;;;5053141;28;20692;-59
2022/04/21 10:27:47;;;;;;;3.07;2.30;;;17.20;66.10;;;;;;5052689;28;20607;-59
2022/04/21 10:30:19;;;;;;;2.10;2.00;;;17.40;66.10;;;;;;5052126;28;20271;-59
2022/04/21 10:32:53;;;;;;;4.93;2.70;;;17.40;65.80;;;;;;5052775;28;20206;-58
2022/04/21 10:35:49;;;;;;;2.75;2.45;;;17.40;65.80;;;;;;5052355;28;20213;-59
2022/04/21 10:38:22;;;;;;;2.72;2.53;;;17.60;65.60;;;;;;5042831;28;20201;-59
2022/04/21 10:40:57;;;;;;;2.30;2.10;;;17.70;65.40;;;;;;5052083;28;20300;-59
2022/04/21 10:43:24;;;;;;;2.47;2.07;;;17.80;65.20;;;;;;5052545;28;20205;-59
2022/04/21 10:46:04;;;;;;;2.53;2.20;;;18.00;64.90;;;;;;5051921;28;20586;-60
2022/04/21 10:48:41;;;;;;;2.40;2.05;;;18.10;63.50;;;;;;5051712;28;20312;-59
2022/04/21 10:51:09;;;;;;;3.28;1.83;;;18.20;64.00;;;;;;5051957;28;20205;-59
2022/04/21 10:59:24;;;;;;;3.13;1.98;;;18.30;63.00;;;;;;5050772;28;20634;-57
2022/04/21 11:01:54;;;;;;;1.90;1.70;;;18.30;62.90;;;;;;5051984;28;20233;-57
2022/04/21 11:04:22;;;;;;;2.85;1.75;;;18.50;62.50;;;;;;5052133;28;20305;-57
2022/04/21 11:06:54;;;;;;;2.50;2.10;;;18.80;62.30;;;;;;5051841;28;20205;-57
2022/04/21 11:09:41;;;;;;;5.43;1.80;;;19.10;61.40;;;;;;5051734;28;20709;-57
2022/04/21 11:12:10;;;;;;;2.92;1.55;;;19.20;61.20;;;;;;5052141;28;20289;-57
2022/04/21 11:14:39;;;;;;;2.88;1.80;;;19.30;60.30;;;;;;5052042;28;20263;-57
2022/04/21 11:17:07;;;;;;;4.35;2.08;;;19.40;60.50;;;;;;5051810;28;20283;-57
2022/04/21 11:19:40;;;;;;;2.13;1.75;;;19.50;60.50;;;;;;5051640;28;20232;-57
2022/04/21 11:22:09;;;;;;;2.20;1.80;;;19.70;60.10;;;;;;5051804;28;20232;-67
2022/04/21 11:25:03;;;;;;;2.70;2.00;;;19.80;60.20;;;;;;5052161;28;20216;-57
2022/04/21 11:27:31;;;;;;;2.35;2.00;;;20.00;59.60;;;;;;5051707;28;20210;-57
2022/04/21 11:30:02;;;;;;;2.13;1.67;;;20.20;59.10;;;;;;5051401;28;20229;-57
2022/04/21 11:32:30;;;;;;;3.90;1.58;;;20.50;57.90;;;;;;5051913;28;20213;-57
2022/04/21 11:35:01;;;;;;;1.77;1.67;;;20.70;57.80;;;;;;5051622;28;20673;-57
2022/04/21 11:37:49;;;;;;;4.03;1.95;;;20.60;56.40;;;;;;5051285;28;20209;-57
2022/04/21 11:40:20;;;;;;;7.38;1.90;;;20.70;57.20;;;;;;5051372;28;20255;-57
2022/04/21 11:42:48;;;;;;;2.60;2.20;;;20.50;58.40;;;;;;5051200;28;20286;-57
2022/04/21 11:45:19;;;;;;;6.40;2.15;;;20.30;59.50;;;;;;5051177;28;20704;-57
2022/04/21 11:47:45;;;;;;;2.45;2.10;;;20.10;59.60;;;;;;5051517;28;20259;-57
2022/04/21 11:50:15;;;;;;;2.70;2.13;;;19.80;59.90;;;;;;5051070;28;20237;-57
2022/04/21 11:52:42;;;;;;;3.65;2.30;;;19.60;60.40;;;;;;5051512;28;20269;-58
2022/04/21 11:55:12;;;;;;;4.15;2.20;;;19.20;60.60;;;;;;5051544;28;20213;-57
2022/04/21 11:57:41;;;;;;;2.53;1.88;;;19.00;60.80;;;;;;5051486;28;20205;-57
2022/04/21 12:00:09;;;;;;;2.85;2.13;;;19.30;61.60;;;;;;5051044;28;20309;-57
2022/04/21 12:08:07;;;;;;;3.53;2.22;;;19.90;60.10;;;;;;5051137;28;20201;-57
2022/04/21 12:10:36;;;;;;;3.85;2.30;;;20.20;60.00;;;;;;5051333;28;20631;-57
2022/04/21 12:13:03;;;;;;;2.45;2.03;;;20.30;59.80;;;;;;5051336;28;20209;-57
2022/04/21 12:15:32;;;;;;;2.25;2.05;;;20.30;59.40;;;;;;5051095;28;20209;-57
2022/04/21 12:18:00;;;;;;;1.83;1.73;;;20.30;58.80;;;;;;5050971;28;20610;-58
2022/04/21 12:20:27;;;;;;;3.17;2.10;;;20.20;59.00;;;;;;5050898;28;20257;-57
2022/04/21 12:22:54;;;;;;;4.13;2.70;;;20.20;59.70;;;;;;5051441;28;20287;-58
2022/04/21 12:25:29;;;;;;;3.13;2.40;;;20.10;59.70;;;;;;5051125;28;20209;-57
2022/04/21 12:28:02;;;;;;;2.20;2.00;;;20.40;59.80;;;;;;5051117;28;20296;-57
2022/04/21 12:30:29;;;;;;;2.60;2.40;;;20.80;59.10;;;;;;5050561;28;20771;-57
2022/04/21 12:32:55;;;;;;;3.30;2.45;;;21.00;57.90;;;;;;5050913;28;20205;-58
2022/04/21 12:35:44;;;;;;;3.10;2.60;;;20.90;58.00;;;;;;5050919;28;20213;-57
2022/04/21 12:40:59;;;;;;;2.38;2.17;;;20.70;59.60;;;;;;5050699;28;20624;-58
2022/04/21 12:43:28;;;;;;;2.78;2.20;;;20.60;59.20;;;;;;5050571;28;20205;-58
2022/04/21 12:45:56;;;;;;;2.70;2.00;;;20.70;59.10;;;;;;5050823;28;20239;-58
2022/04/21 12:48:23;;;;;;;2.63;1.98;;;20.70;58.70;;;;;;5052382;28;20233;-58
2022/04/21 12:50:50;;;;;;;3.10;2.22;;;20.60;59.10;;;;;;5054754;28;20210;-57
2022/04/21 12:53:27;;;;;;;3.53;2.80;;;20.70;58.60;;;;;;5054777;28;20233;-57
2022/04/21 12:55:55;;;;;;;5.25;2.35;;;20.80;58.00;;;;;;5054608;28;20210;-58
2022/04/21 12:58:31;;;;;;;3.85;2.38;;;21.00;57.90;;;;;;5054666;28;20263;-58
2022/04/21 13:01:01;;;;;;;2.50;2.30;;;21.10;57.70;;;;;;5054278;28;20300;-58
2022/04/21 13:03:28;;;;;;;2.50;2.30;;;21.60;57.10;;;;;;5054485;28;20297;-58
2022/04/21 13:05:57;;;;;;;4.18;2.45;;;21.90;56.80;;;;;;5054371;28;20296;-58
2022/04/21 13:08:26;;;;;;;2.63;2.42;;;22.00;56.50;;;;;;5054146;28;20229;-58
2022/04/21 13:10:54;;;;;;;3.13;2.20;;;21.90;56.50;;;;;;5054055;28;20634;-58
2022/04/21 13:13:21;;;;;;;3.42;2.50;;;21.70;57.20;;;;;;5054173;28;20206;-58
2022/04/21 13:15:49;;;;;;;4.47;2.25;;;21.50;56.90;;;;;;5054618;28;20677;-58
2022/04/21 13:18:17;;;;;;;3.65;2.08;;;21.20;57.60;;;;;;5054013;28;20212;-58
2022/04/21 13:23:28;;;;;;;2.70;1.80;;;21.10;56.70;;;;;;5054062;28;20445;-58
2022/04/21 13:25:56;;;;;;;3.55;2.10;;;21.00;56.90;;;;;;5054155;28;20208;-58
2022/04/21 13:28:22;;;;;;;7.30;2.70;;;21.00;57.10;;;;;;5053889;28;20213;-57
2022/04/21 13:33:21;;;;;;;3.58;2.58;;;20.80;58.70;;;;;;5053877;28;20649;-57
2022/04/21 13:33:38;;;;;;;4.93;2.40;;;20.40;59.00;;;;;;5053623;28;20597;-58
2022/04/21 13:36:06;;;;;;;4.63;2.65;;;20.20;59.10;;;;;;5054112;28;20296;-59
2022/04/21 13:38:33;;;;;;;4.53;2.53;;;20.00;58.90;;;;;;5053809;28;20313;-57
2022/04/21 13:41:00;;;;;;;5.18;2.63;;;20.00;59.40;;;;;;5053731;28;20296;-59
2022/04/21 13:43:27;;;;;;;3.10;2.10;;;20.10;59.40;;;;;;5053563;28;20636;-57
2022/04/21 13:45:56;;;;;;;3.00;2.40;;;20.10;58.30;;;;;;5053814;28;20233;-57
2022/04/21 13:48:23;;;;;;;3.63;2.05;;;20.00;58.00;;;;;;5053639;28;20240;-57
2022/04/21 13:50:50;;;;;;;2.50;2.30;;;20.10;58.80;;;;;;5053887;28;20209;-57
2022/04/21 13:53:17;;;;;;;2.42;1.98;;;19.90;57.90;;;;;;5053764;28;20240;-57
2022/04/21 13:55:44;;;;;;;3.28;2.50;;;19.70;58.00;;;;;;5053517;28;20201;-57
2022/04/21 13:58:12;;;;;;;2.72;2.10;;;19.60;58.40;;;;;;5053352;28;20601;-57